sensor_id;sensor_type;location;lat;lon;timestamp;P1;durP1;ratioP1;P2;durP2;ratioP2
52031;SDS011;38044;45.148;39.604;2022-07-23T00:01:38;7.88;;;4.00;;
52031;SDS011;38044;45.148;39.604;2022-07-23T00:04:06;6.85;;;3.85;;
52031;SDS011;38044;45.148;39.604;2022-07-23T00:06:32;5.47;;;3.80;;
52031;SDS011;38044;45.148;39.604;2022-07-23T00:08:58;7.15;;;4.43;;
52031;SDS011;38044;45.148;39.604;2022-07-23T00:11:24;7.82;;;4.45;;
52031;SDS011;38044;45.148;39.604;2022-07-23T00:13:49;19.25;;;7.43;;
52031;SDS011;38044;45.148;39.604;2022-07-23T00:16:15;10.40;;;5.72;;
52031;SDS011;38044;45.148;39.604;2022-07-23T00:18:42;18.52;;;7.13;;
52031;SDS011;38044;45.148;39.604;2022-07-23T00:21:07;8.88;;;5.03;;
52031;SDS011;38044;45.148;39.604;2022-07-23T00:23:33;10.63;;;5.68;;
52031;SDS011;38044;45.148;39.604;2022-07-23T00:25:59;8.60;;;4.78;;
52031;SDS011;38044;45.148;39.604;2022-07-23T00:28:25;6.35;;;3.63;;
52031;SDS011;38044;45.148;39.604;2022-07-23T00:30:51;8.68;;;4.40;;
52031;SDS011;38044;45.148;39.604;2022-07-23T00:33:17;5.75;;;4.03;;
52031;SDS011;38044;45.148;39.604;2022-07-23T00:35:43;9.57;;;4.53;;
52031;SDS011;38044;45.148;39.604;2022-07-23T00:38:10;30.67;;;9.40;;
52031;SDS011;38044;45.148;39.604;2022-07-23T00:40:37;21.08;;;7.18;;
52031;SDS011;38044;45.148;39.604;2022-07-23T00:43:03;26.20;;;8.48;;
52031;SDS011;38044;45.148;39.604;2022-07-23T00:45:30;28.55;;;9.88;;
52031;SDS011;38044;45.148;39.604;2022-07-23T00:47:56;28.83;;;9.60;;
52031;SDS011;38044;45.148;39.604;2022-07-23T00:50:22;18.08;;;6.35;;
52031;SDS011;38044;45.148;39.604;2022-07-23T00:52:49;14.25;;;5.40;;
52031;SDS011;38044;45.148;39.604;2022-07-23T00:55:15;7.35;;;4.53;;
52031;SDS011;38044;45.148;39.604;2022-07-23T00:57:41;8.93;;;4.32;;
52031;SDS011;38044;45.148;39.604;2022-07-23T01:00:09;6.38;;;4.40;;
52031;SDS011;38044;45.148;39.604;2022-07-23T01:02:37;5.43;;;3.67;;
52031;SDS011;38044;45.148;39.604;2022-07-23T01:05:03;11.73;;;4.50;;
52031;SDS011;38044;45.148;39.604;2022-07-23T01:07:30;5.72;;;3.65;;
52031;SDS011;38044;45.148;39.604;2022-07-23T01:09:56;7.43;;;3.72;;
52031;SDS011;38044;45.148;39.604;2022-07-23T01:12:23;6.13;;;4.32;;
52031;SDS011;38044;45.148;39.604;2022-07-23T01:14:55;6.47;;;3.88;;
52031;SDS011;38044;45.148;39.604;2022-07-23T01:17:25;5.32;;;3.78;;
52031;SDS011;38044;45.148;39.604;2022-07-23T01:19:51;7.07;;;3.97;;
52031;SDS011;38044;45.148;39.604;2022-07-23T01:22:18;5.15;;;3.83;;
52031;SDS011;38044;45.148;39.604;2022-07-23T01:24:45;5.43;;;3.80;;
52031;SDS011;38044;45.148;39.604;2022-07-23T01:27:11;7.40;;;4.30;;
52031;SDS011;38044;45.148;39.604;2022-07-23T01:29:38;6.90;;;3.75;;
52031;SDS011;38044;45.148;39.604;2022-07-23T01:32:04;6.65;;;3.92;;
52031;SDS011;38044;45.148;39.604;2022-07-23T01:34:31;7.60;;;3.80;;
52031;SDS011;38044;45.148;39.604;2022-07-23T01:36:57;5.75;;;3.80;;
52031;SDS011;38044;45.148;39.604;2022-07-23T01:39:23;7.75;;;3.97;;
52031;SDS011;38044;45.148;39.604;2022-07-23T01:41:49;6.65;;;3.75;;
52031;SDS011;38044;45.148;39.604;2022-07-23T01:44:14;6.57;;;3.53;;
52031;SDS011;38044;45.148;39.604;2022-07-23T01:46:40;8.77;;;3.83;;
52031;SDS011;38044;45.148;39.604;2022-07-23T01:49:06;7.32;;;4.05;;
52031;SDS011;38044;45.148;39.604;2022-07-23T01:51:32;8.80;;;3.90;;
52031;SDS011;38044;45.148;39.604;2022-07-23T01:53:58;6.30;;;3.58;;
52031;SDS011;38044;45.148;39.604;2022-07-23T01:56:24;4.97;;;3.83;;
52031;SDS011;38044;45.148;39.604;2022-07-23T01:58:50;8.13;;;3.42;;
52031;SDS011;38044;45.148;39.604;2022-07-23T02:01:16;6.70;;;3.90;;
52031;SDS011;38044;45.148;39.604;2022-07-23T02:03:42;4.68;;;3.08;;
52031;SDS011;38044;45.148;39.604;2022-07-23T02:06:08;6.60;;;3.17;;
52031;SDS011;38044;45.148;39.604;2022-07-23T02:08:33;5.25;;;2.83;;
52031;SDS011;38044;45.148;39.604;2022-07-23T02:10:59;4.32;;;2.72;;
52031;SDS011;38044;45.148;39.604;2022-07-23T02:13:26;3.65;;;3.20;;
52031;SDS011;38044;45.148;39.604;2022-07-23T02:15:53;5.15;;;2.67;;
52031;SDS011;38044;45.148;39.604;2022-07-23T02:18:19;5.72;;;3.00;;
52031;SDS011;38044;45.148;39.604;2022-07-23T02:20:45;4.60;;;3.10;;
52031;SDS011;38044;45.148;39.604;2022-07-23T02:23:11;5.32;;;3.05;;
52031;SDS011;38044;45.148;39.604;2022-07-23T02:25:37;3.70;;;2.60;;
52031;SDS011;38044;45.148;39.604;2022-07-23T02:28:03;9.30;;;4.63;;
52031;SDS011;38044;45.148;39.604;2022-07-23T02:30:29;9.77;;;4.30;;
52031;SDS011;38044;45.148;39.604;2022-07-23T02:32:55;8.95;;;3.67;;
52031;SDS011;38044;45.148;39.604;2022-07-23T02:35:21;5.18;;;3.10;;
52031;SDS011;38044;45.148;39.604;2022-07-23T02:37:47;7.60;;;3.70;;
52031;SDS011;38044;45.148;39.604;2022-07-23T02:40:13;9.60;;;4.15;;
52031;SDS011;38044;45.148;39.604;2022-07-23T02:42:39;6.90;;;3.72;;
52031;SDS011;38044;45.148;39.604;2022-07-23T02:45:06;6.65;;;3.60;;
52031;SDS011;38044;45.148;39.604;2022-07-23T02:47:32;6.53;;;3.42;;
52031;SDS011;38044;45.148;39.604;2022-07-23T02:49:58;4.63;;;3.00;;
52031;SDS011;38044;45.148;39.604;2022-07-23T02:52:24;6.38;;;3.33;;
52031;SDS011;38044;45.148;39.604;2022-07-23T02:54:49;5.75;;;2.97;;
52031;SDS011;38044;45.148;39.604;2022-07-23T02:57:15;4.72;;;2.90;;
52031;SDS011;38044;45.148;39.604;2022-07-23T02:59:41;4.95;;;3.22;;
52031;SDS011;38044;45.148;39.604;2022-07-23T03:02:07;5.80;;;3.00;;
52031;SDS011;38044;45.148;39.604;2022-07-23T03:04:33;5.35;;;3.10;;
52031;SDS011;38044;45.148;39.604;2022-07-23T03:06:59;4.30;;;2.50;;
52031;SDS011;38044;45.148;39.604;2022-07-23T03:09:25;4.13;;;2.97;;
52031;SDS011;38044;45.148;39.604;2022-07-23T03:11:50;4.55;;;2.60;;
52031;SDS011;38044;45.148;39.604;2022-07-23T03:14:16;7.68;;;2.83;;
52031;SDS011;38044;45.148;39.604;2022-07-23T03:16:42;5.75;;;2.85;;
52031;SDS011;38044;45.148;39.604;2022-07-23T03:19:08;12.27;;;4.38;;
52031;SDS011;38044;45.148;39.604;2022-07-23T03:21:34;8.00;;;3.60;;
52031;SDS011;38044;45.148;39.604;2022-07-23T03:24:04;6.53;;;2.88;;
52031;SDS011;38044;45.148;39.604;2022-07-23T03:26:30;6.60;;;2.85;;
52031;SDS011;38044;45.148;39.604;2022-07-23T03:28:55;9.43;;;3.45;;
52031;SDS011;38044;45.148;39.604;2022-07-23T03:31:21;5.70;;;3.10;;
52031;SDS011;38044;45.148;39.604;2022-07-23T03:33:47;6.50;;;2.83;;
52031;SDS011;38044;45.148;39.604;2022-07-23T03:36:13;3.67;;;2.72;;
52031;SDS011;38044;45.148;39.604;2022-07-23T03:38:39;5.20;;;3.10;;
52031;SDS011;38044;45.148;39.604;2022-07-23T03:41:05;6.03;;;3.08;;
52031;SDS011;38044;45.148;39.604;2022-07-23T03:43:30;3.47;;;2.65;;
52031;SDS011;38044;45.148;39.604;2022-07-23T03:45:56;4.40;;;2.50;;
52031;SDS011;38044;45.148;39.604;2022-07-23T03:48:23;4.78;;;2.58;;
52031;SDS011;38044;45.148;39.604;2022-07-23T03:50:49;5.13;;;2.55;;
52031;SDS011;38044;45.148;39.604;2022-07-23T03:53:15;4.63;;;2.72;;
52031;SDS011;38044;45.148;39.604;2022-07-23T03:55:40;5.78;;;3.00;;
52031;SDS011;38044;45.148;39.604;2022-07-23T03:58:06;4.93;;;3.10;;
52031;SDS011;38044;45.148;39.604;2022-07-23T04:00:32;7.32;;;3.25;;
52031;SDS011;38044;45.148;39.604;2022-07-23T04:03:00;8.05;;;3.95;;
52031;SDS011;38044;45.148;39.604;2022-07-23T04:05:26;7.25;;;3.00;;
52031;SDS011;38044;45.148;39.604;2022-07-23T04:07:51;5.13;;;2.47;;
52031;SDS011;38044;45.148;39.604;2022-07-23T04:10:17;3.92;;;2.95;;
52031;SDS011;38044;45.148;39.604;2022-07-23T04:12:43;4.03;;;2.70;;
52031;SDS011;38044;45.148;39.604;2022-07-23T04:15:09;7.88;;;2.85;;
52031;SDS011;38044;45.148;39.604;2022-07-23T04:17:35;6.32;;;3.10;;
52031;SDS011;38044;45.148;39.604;2022-07-23T04:20:03;5.28;;;2.97;;
52031;SDS011;38044;45.148;39.604;2022-07-23T04:22:29;4.32;;;2.97;;
52031;SDS011;38044;45.148;39.604;2022-07-23T04:24:55;4.05;;;2.63;;
52031;SDS011;38044;45.148;39.604;2022-07-23T04:27:21;5.97;;;2.88;;
52031;SDS011;38044;45.148;39.604;2022-07-23T04:29:47;5.10;;;2.80;;
52031;SDS011;38044;45.148;39.604;2022-07-23T04:32:13;7.38;;;3.83;;
52031;SDS011;38044;45.148;39.604;2022-07-23T04:34:39;3.50;;;2.13;;
52031;SDS011;38044;45.148;39.604;2022-07-23T04:37:04;2.78;;;2.17;;
52031;SDS011;38044;45.148;39.604;2022-07-23T04:39:30;3.38;;;2.30;;
52031;SDS011;38044;45.148;39.604;2022-07-23T04:41:56;4.95;;;2.65;;
52031;SDS011;38044;45.148;39.604;2022-07-23T04:44:22;4.50;;;2.42;;
52031;SDS011;38044;45.148;39.604;2022-07-23T04:46:48;5.70;;;2.60;;
52031;SDS011;38044;45.148;39.604;2022-07-23T04:49:14;3.92;;;2.80;;
52031;SDS011;38044;45.148;39.604;2022-07-23T04:51:46;5.22;;;2.50;;
52031;SDS011;38044;45.148;39.604;2022-07-23T04:54:12;5.25;;;2.60;;
52031;SDS011;38044;45.148;39.604;2022-07-23T04:56:43;4.97;;;2.28;;
52031;SDS011;38044;45.148;39.604;2022-07-23T04:59:12;5.40;;;2.38;;
52031;SDS011;38044;45.148;39.604;2022-07-23T05:01:37;3.13;;;2.17;;
52031;SDS011;38044;45.148;39.604;2022-07-23T05:04:03;5.50;;;2.58;;
52031;SDS011;38044;45.148;39.604;2022-07-23T05:06:29;3.20;;;1.92;;
52031;SDS011;38044;45.148;39.604;2022-07-23T05:08:55;4.30;;;3.08;;
52031;SDS011;38044;45.148;39.604;2022-07-23T05:11:21;3.33;;;2.35;;
52031;SDS011;38044;45.148;39.604;2022-07-23T05:13:47;3.70;;;2.45;;
52031;SDS011;38044;45.148;39.604;2022-07-23T05:16:13;3.67;;;2.10;;
52031;SDS011;38044;45.148;39.604;2022-07-23T05:18:39;5.07;;;1.98;;
52031;SDS011;38044;45.148;39.604;2022-07-23T05:21:04;3.17;;;2.05;;
52031;SDS011;38044;45.148;39.604;2022-07-23T05:23:30;3.97;;;2.30;;
52031;SDS011;38044;45.148;39.604;2022-07-23T05:25:56;3.28;;;2.30;;
52031;SDS011;38044;45.148;39.604;2022-07-23T05:28:22;4.13;;;2.65;;
52031;SDS011;38044;45.148;39.604;2022-07-23T05:30:48;2.95;;;2.60;;
52031;SDS011;38044;45.148;39.604;2022-07-23T05:33:14;4.40;;;2.30;;
52031;SDS011;38044;45.148;39.604;2022-07-23T05:35:40;8.10;;;3.17;;
52031;SDS011;38044;45.148;39.604;2022-07-23T05:38:06;3.60;;;2.38;;
52031;SDS011;38044;45.148;39.604;2022-07-23T05:40:32;4.88;;;2.33;;
52031;SDS011;38044;45.148;39.604;2022-07-23T05:42:58;5.57;;;2.78;;
52031;SDS011;38044;45.148;39.604;2022-07-23T05:45:24;3.50;;;2.65;;
52031;SDS011;38044;45.148;39.604;2022-07-23T05:47:50;3.72;;;2.40;;
52031;SDS011;38044;45.148;39.604;2022-07-23T05:50:16;4.38;;;2.33;;
52031;SDS011;38044;45.148;39.604;2022-07-23T05:52:42;2.67;;;1.90;;
52031;SDS011;38044;45.148;39.604;2022-07-23T05:55:09;2.25;;;1.90;;
52031;SDS011;38044;45.148;39.604;2022-07-23T05:57:37;2.40;;;1.80;;
52031;SDS011;38044;45.148;39.604;2022-07-23T06:00:04;2.28;;;1.90;;
52031;SDS011;38044;45.148;39.604;2022-07-23T06:02:32;1.80;;;1.70;;
52031;SDS011;38044;45.148;39.604;2022-07-23T06:04:57;3.03;;;2.17;;
52031;SDS011;38044;45.148;39.604;2022-07-23T06:07:23;2.78;;;2.15;;
52031;SDS011;38044;45.148;39.604;2022-07-23T06:09:49;2.88;;;2.08;;
52031;SDS011;38044;45.148;39.604;2022-07-23T06:12:15;3.47;;;1.83;;
52031;SDS011;38044;45.148;39.604;2022-07-23T06:14:42;3.28;;;1.92;;
52031;SDS011;38044;45.148;39.604;2022-07-23T06:17:08;3.08;;;1.98;;
52031;SDS011;38044;45.148;39.604;2022-07-23T06:19:34;2.25;;;1.95;;
52031;SDS011;38044;45.148;39.604;2022-07-23T06:22:00;2.20;;;2.00;;
52031;SDS011;38044;45.148;39.604;2022-07-23T06:24:26;2.85;;;2.03;;
52031;SDS011;38044;45.148;39.604;2022-07-23T06:26:51;3.13;;;2.20;;
52031;SDS011;38044;45.148;39.604;2022-07-23T06:29:17;2.20;;;2.00;;
52031;SDS011;38044;45.148;39.604;2022-07-23T06:31:43;4.28;;;2.50;;
52031;SDS011;38044;45.148;39.604;2022-07-23T06:34:09;2.97;;;2.67;;
52031;SDS011;38044;45.148;39.604;2022-07-23T06:36:35;3.15;;;2.50;;
52031;SDS011;38044;45.148;39.604;2022-07-23T06:39:01;3.53;;;2.47;;
52031;SDS011;38044;45.148;39.604;2022-07-23T06:41:27;2.40;;;2.20;;
52031;SDS011;38044;45.148;39.604;2022-07-23T06:43:52;3.92;;;2.20;;
52031;SDS011;38044;45.148;39.604;2022-07-23T06:46:18;2.65;;;2.38;;
52031;SDS011;38044;45.148;39.604;2022-07-23T06:48:46;2.72;;;2.20;;
52031;SDS011;38044;45.148;39.604;2022-07-23T06:51:12;3.67;;;2.10;;
52031;SDS011;38044;45.148;39.604;2022-07-23T06:53:37;3.38;;;2.03;;
52031;SDS011;38044;45.148;39.604;2022-07-23T06:56:03;4.35;;;2.47;;
52031;SDS011;38044;45.148;39.604;2022-07-23T06:58:29;4.82;;;2.47;;
52031;SDS011;38044;45.148;39.604;2022-07-23T07:00:55;3.97;;;2.03;;
52031;SDS011;38044;45.148;39.604;2022-07-23T07:03:22;2.85;;;2.13;;
52031;SDS011;38044;45.148;39.604;2022-07-23T07:05:47;4.20;;;2.33;;
52031;SDS011;38044;45.148;39.604;2022-07-23T07:08:15;2.25;;;1.90;;
52031;SDS011;38044;45.148;39.604;2022-07-23T07:10:41;4.70;;;2.40;;
52031;SDS011;38044;45.148;39.604;2022-07-23T07:13:07;2.47;;;2.10;;
52031;SDS011;38044;45.148;39.604;2022-07-23T07:15:33;4.50;;;1.95;;
52031;SDS011;38044;45.148;39.604;2022-07-23T07:17:59;2.20;;;2.00;;
52031;SDS011;38044;45.148;39.604;2022-07-23T07:20:24;2.50;;;2.00;;
52031;SDS011;38044;45.148;39.604;2022-07-23T07:22:50;4.50;;;2.38;;
52031;SDS011;38044;45.148;39.604;2022-07-23T07:25:16;6.70;;;1.92;;
52031;SDS011;38044;45.148;39.604;2022-07-23T07:27:42;2.95;;;2.00;;
52031;SDS011;38044;45.148;39.604;2022-07-23T07:30:10;2.85;;;1.92;;
52031;SDS011;38044;45.148;39.604;2022-07-23T07:32:37;2.53;;;1.90;;
52031;SDS011;38044;45.148;39.604;2022-07-23T07:35:04;1.65;;;1.55;;
52031;SDS011;38044;45.148;39.604;2022-07-23T07:37:30;1.73;;;1.50;;
52031;SDS011;38044;45.148;39.604;2022-07-23T07:39:56;1.80;;;1.70;;
52031;SDS011;38044;45.148;39.604;2022-07-23T07:42:22;2.83;;;2.10;;
52031;SDS011;38044;45.148;39.604;2022-07-23T07:44:48;3.33;;;2.20;;
52031;SDS011;38044;45.148;39.604;2022-07-23T07:47:14;4.70;;;1.90;;
52031;SDS011;38044;45.148;39.604;2022-07-23T07:49:43;4.57;;;1.88;;
52031;SDS011;38044;45.148;39.604;2022-07-23T07:52:10;2.17;;;1.90;;
52031;SDS011;38044;45.148;39.604;2022-07-23T07:54:36;3.92;;;2.25;;
52031;SDS011;38044;45.148;39.604;2022-07-23T07:57:02;2.30;;;1.83;;
52031;SDS011;38044;45.148;39.604;2022-07-23T07:59:28;7.15;;;2.30;;
52031;SDS011;38044;45.148;39.604;2022-07-23T08:01:54;6.53;;;2.25;;
52031;SDS011;38044;45.148;39.604;2022-07-23T08:04:20;2.75;;;2.03;;
52031;SDS011;38044;45.148;39.604;2022-07-23T08:06:46;3.55;;;2.30;;
52031;SDS011;38044;45.148;39.604;2022-07-23T08:09:12;2.20;;;2.00;;
52031;SDS011;38044;45.148;39.604;2022-07-23T08:11:38;3.80;;;2.10;;
52031;SDS011;38044;45.148;39.604;2022-07-23T08:14:04;3.22;;;2.33;;
52031;SDS011;38044;45.148;39.604;2022-07-23T08:16:29;2.22;;;2.00;;
52031;SDS011;38044;45.148;39.604;2022-07-23T08:18:55;2.33;;;2.05;;
52031;SDS011;38044;45.148;39.604;2022-07-23T08:21:21;2.53;;;2.33;;
52031;SDS011;38044;45.148;39.604;2022-07-23T08:23:47;3.58;;;2.20;;
52031;SDS011;38044;45.148;39.604;2022-07-23T08:26:13;3.72;;;2.30;;
52031;SDS011;38044;45.148;39.604;2022-07-23T08:28:39;2.55;;;2.05;;
52031;SDS011;38044;45.148;39.604;2022-07-23T08:31:05;3.95;;;2.45;;
52031;SDS011;38044;45.148;39.604;2022-07-23T08:33:31;2.90;;;2.25;;
52031;SDS011;38044;45.148;39.604;2022-07-23T08:35:57;3.42;;;2.00;;
52031;SDS011;38044;45.148;39.604;2022-07-23T08:38:24;3.88;;;2.13;;
52031;SDS011;38044;45.148;39.604;2022-07-23T08:40:51;3.30;;;2.35;;
52031;SDS011;38044;45.148;39.604;2022-07-23T08:43:19;5.57;;;2.40;;
52031;SDS011;38044;45.148;39.604;2022-07-23T08:45:51;2.00;;;1.80;;
52031;SDS011;38044;45.148;39.604;2022-07-23T08:48:22;3.10;;;2.03;;
52031;SDS011;38044;45.148;39.604;2022-07-23T08:50:51;2.67;;;2.10;;
52031;SDS011;38044;45.148;39.604;2022-07-23T08:53:19;3.08;;;1.95;;
52031;SDS011;38044;45.148;39.604;2022-07-23T08:55:47;2.33;;;1.80;;
52031;SDS011;38044;45.148;39.604;2022-07-23T08:58:15;3.47;;;1.80;;
52031;SDS011;38044;45.148;39.604;2022-07-23T09:00:42;1.50;;;1.40;;
52031;SDS011;38044;45.148;39.604;2022-07-23T09:03:18;2.70;;;1.60;;
52031;SDS011;38044;45.148;39.604;2022-07-23T09:05:46;2.08;;;1.75;;
52031;SDS011;38044;45.148;39.604;2022-07-23T09:08:13;5.10;;;2.28;;
52031;SDS011;38044;45.148;39.604;2022-07-23T09:10:45;3.17;;;2.45;;
52031;SDS011;38044;45.148;39.604;2022-07-23T09:15:52;3.95;;;2.10;;
52031;SDS011;38044;45.148;39.604;2022-07-23T09:18:27;9.25;;;2.13;;
52031;SDS011;38044;45.148;39.604;2022-07-23T09:21:11;5.18;;;1.73;;
52031;SDS011;38044;45.148;39.604;2022-07-23T09:26:17;4.55;;;1.60;;
52031;SDS011;38044;45.148;39.604;2022-07-23T09:28:53;1.95;;;1.75;;
52031;SDS011;38044;45.148;39.604;2022-07-23T09:31:19;3.42;;;1.98;;
52031;SDS011;38044;45.148;39.604;2022-07-23T09:33:45;2.40;;;1.75;;
52031;SDS011;38044;45.148;39.604;2022-07-23T09:36:11;2.70;;;1.55;;
52031;SDS011;38044;45.148;39.604;2022-07-23T09:38:50;2.78;;;1.30;;
52031;SDS011;38044;45.148;39.604;2022-07-23T09:41:16;2.65;;;1.10;;
52031;SDS011;38044;45.148;39.604;2022-07-23T09:43:43;3.08;;;1.40;;
52031;SDS011;38044;45.148;39.604;2022-07-23T09:48:51;3.43;;;1.10;;
52031;SDS011;38044;45.148;39.604;2022-07-23T09:51:18;2.97;;;1.20;;
52031;SDS011;38044;45.148;39.604;2022-07-23T09:53:49;4.93;;;1.65;;
52031;SDS011;38044;45.148;39.604;2022-07-23T09:56:15;4.93;;;1.20;;
52031;SDS011;38044;45.148;39.604;2022-07-23T09:58:42;1.67;;;0.98;;
52031;SDS011;38044;45.148;39.604;2022-07-23T10:01:12;4.38;;;1.20;;
52031;SDS011;38044;45.148;39.604;2022-07-23T10:03:39;1.95;;;1.00;;
52031;SDS011;38044;45.148;39.604;2022-07-23T10:06:08;3.00;;;0.90;;
52031;SDS011;38044;45.148;39.604;2022-07-23T10:08:35;1.80;;;1.20;;
52031;SDS011;38044;45.148;39.604;2022-07-23T10:11:02;3.00;;;1.20;;
52031;SDS011;38044;45.148;39.604;2022-07-23T10:13:29;2.10;;;0.95;;
52031;SDS011;38044;45.148;39.604;2022-07-23T10:15:58;1.20;;;0.90;;
52031;SDS011;38044;45.148;39.604;2022-07-23T10:18:24;1.80;;;1.23;;
52031;SDS011;38044;45.148;39.604;2022-07-23T10:20:50;2.83;;;1.00;;
52031;SDS011;38044;45.148;39.604;2022-07-23T10:25:50;5.53;;;1.10;;
52031;SDS011;38044;45.148;39.604;2022-07-23T10:28:28;3.55;;;1.15;;
52031;SDS011;38044;45.148;39.604;2022-07-23T10:36:46;3.03;;;0.90;;
52031;SDS011;38044;45.148;39.604;2022-07-23T10:39:22;0.70;;;0.70;;
52031;SDS011;38044;45.148;39.604;2022-07-23T10:41:51;1.75;;;0.90;;
52031;SDS011;38044;45.148;39.604;2022-07-23T10:44:18;1.85;;;1.00;;
52031;SDS011;38044;45.148;39.604;2022-07-23T10:46:55;1.33;;;1.00;;
52031;SDS011;38044;45.148;39.604;2022-07-23T10:49:48;3.90;;;0.82;;
52031;SDS011;38044;45.148;39.604;2022-07-23T10:54:54;1.08;;;1.00;;
52031;SDS011;38044;45.148;39.604;2022-07-23T10:57:47;1.85;;;1.15;;
52031;SDS011;38044;45.148;39.604;2022-07-23T11:00:36;1.70;;;1.13;;
52031;SDS011;38044;45.148;39.604;2022-07-23T11:03:03;3.03;;;1.17;;
52031;SDS011;38044;45.148;39.604;2022-07-23T11:05:44;2.03;;;1.00;;
52031;SDS011;38044;45.148;39.604;2022-07-23T11:08:20;2.40;;;1.10;;
52031;SDS011;38044;45.148;39.604;2022-07-23T11:10:53;1.75;;;1.10;;
52031;SDS011;38044;45.148;39.604;2022-07-23T11:13:36;1.53;;;0.97;;
52031;SDS011;38044;45.148;39.604;2022-07-23T11:16:17;2.45;;;1.00;;
52031;SDS011;38044;45.148;39.604;2022-07-23T11:31:59;1.55;;;1.02;;
52031;SDS011;38044;45.148;39.604;2022-07-23T11:37:08;5.23;;;1.43;;
52031;SDS011;38044;45.148;39.604;2022-07-23T11:39:36;1.52;;;0.98;;
52031;SDS011;38044;45.148;39.604;2022-07-23T11:42:03;1.90;;;1.00;;
52031;SDS011;38044;45.148;39.604;2022-07-23T11:44:34;3.60;;;1.02;;
52031;SDS011;38044;45.148;39.604;2022-07-23T11:47:04;2.30;;;1.55;;
52031;SDS011;38044;45.148;39.604;2022-07-23T11:49:34;2.43;;;1.13;;
52031;SDS011;38044;45.148;39.604;2022-07-23T11:52:04;1.77;;;1.05;;
52031;SDS011;38044;45.148;39.604;2022-07-23T11:54:32;1.08;;;0.95;;
52031;SDS011;38044;45.148;39.604;2022-07-23T11:57:00;2.33;;;1.00;;
52031;SDS011;38044;45.148;39.604;2022-07-23T11:59:29;1.50;;;1.00;;
52031;SDS011;38044;45.148;39.604;2022-07-23T12:04:24;2.45;;;1.10;;
52031;SDS011;38044;45.148;39.604;2022-07-23T12:07:23;3.63;;;1.08;;
52031;SDS011;38044;45.148;39.604;2022-07-23T12:09:52;2.22;;;0.98;;
52031;SDS011;38044;45.148;39.604;2022-07-23T12:12:17;2.03;;;0.80;;
52031;SDS011;38044;45.148;39.604;2022-07-23T12:14:54;1.55;;;1.17;;
52031;SDS011;38044;45.148;39.604;2022-07-23T12:17:26;2.05;;;1.48;;
52031;SDS011;38044;45.148;39.604;2022-07-23T12:19:57;1.00;;;0.90;;
52031;SDS011;38044;45.148;39.604;2022-07-23T12:22:25;1.38;;;1.05;;
52031;SDS011;38044;45.148;39.604;2022-07-23T12:25:02;2.47;;;1.13;;
52031;SDS011;38044;45.148;39.604;2022-07-23T12:27:31;1.73;;;1.17;;
52031;SDS011;38044;45.148;39.604;2022-07-23T12:29:57;1.35;;;1.25;;
52031;SDS011;38044;45.148;39.604;2022-07-23T12:32:27;2.92;;;1.30;;
52031;SDS011;38044;45.148;39.604;2022-07-23T12:35:07;3.13;;;1.30;;
52031;SDS011;38044;45.148;39.604;2022-07-23T12:37:34;2.20;;;1.27;;
52031;SDS011;38044;45.148;39.604;2022-07-23T12:42:53;6.05;;;1.60;;
52031;SDS011;38044;45.148;39.604;2022-07-23T12:46:16;2.65;;;1.50;;
52031;SDS011;38044;45.148;39.604;2022-07-23T12:50:44;2.83;;;1.67;;
52031;SDS011;38044;45.148;39.604;2022-07-23T12:53:17;5.85;;;1.70;;
52031;SDS011;38044;45.148;39.604;2022-07-23T12:55:45;2.25;;;1.65;;
52031;SDS011;38044;45.148;39.604;2022-07-23T12:58:13;3.55;;;2.08;;
52031;SDS011;38044;45.148;39.604;2022-07-23T13:00:51;1.73;;;1.60;;
52031;SDS011;38044;45.148;39.604;2022-07-23T13:03:31;2.35;;;1.67;;
52031;SDS011;38044;45.148;39.604;2022-07-23T13:05:59;4.88;;;1.60;;
52031;SDS011;38044;45.148;39.604;2022-07-23T13:08:27;3.80;;;1.60;;
52031;SDS011;38044;45.148;39.604;2022-07-23T13:10:54;5.82;;;1.77;;
52031;SDS011;38044;45.148;39.604;2022-07-23T13:13:22;4.15;;;1.63;;
52031;SDS011;38044;45.148;39.604;2022-07-23T13:15:49;2.10;;;1.60;;
52031;SDS011;38044;45.148;39.604;2022-07-23T13:18:16;3.05;;;1.73;;
52031;SDS011;38044;45.148;39.604;2022-07-23T13:20:43;3.80;;;1.88;;
52031;SDS011;38044;45.148;39.604;2022-07-23T13:23:10;2.00;;;1.77;;
52031;SDS011;38044;45.148;39.604;2022-07-23T13:25:36;2.67;;;1.88;;
52031;SDS011;38044;45.148;39.604;2022-07-23T13:28:02;3.85;;;1.85;;
52031;SDS011;38044;45.148;39.604;2022-07-23T13:30:28;3.63;;;1.90;;
52031;SDS011;38044;45.148;39.604;2022-07-23T13:32:54;2.38;;;1.85;;
52031;SDS011;38044;45.148;39.604;2022-07-23T13:35:20;2.75;;;2.03;;
52031;SDS011;38044;45.148;39.604;2022-07-23T13:37:46;2.55;;;1.77;;
52031;SDS011;38044;45.148;39.604;2022-07-23T13:40:12;4.03;;;1.98;;
52031;SDS011;38044;45.148;39.604;2022-07-23T13:42:38;2.22;;;1.95;;
52031;SDS011;38044;45.148;39.604;2022-07-23T13:45:04;2.05;;;1.70;;
52031;SDS011;38044;45.148;39.604;2022-07-23T13:47:31;3.25;;;1.65;;
52031;SDS011;38044;45.148;39.604;2022-07-23T13:49:57;3.83;;;1.67;;
52031;SDS011;38044;45.148;39.604;2022-07-23T13:52:23;2.83;;;1.77;;
52031;SDS011;38044;45.148;39.604;2022-07-23T13:54:49;2.47;;;1.80;;
52031;SDS011;38044;45.148;39.604;2022-07-23T13:57:16;4.47;;;2.22;;
52031;SDS011;38044;45.148;39.604;2022-07-23T13:59:42;17.95;;;12.40;;
52031;SDS011;38044;45.148;39.604;2022-07-23T14:02:08;6.45;;;3.40;;
52031;SDS011;38044;45.148;39.604;2022-07-23T14:04:34;3.20;;;2.20;;
52031;SDS011;38044;45.148;39.604;2022-07-23T14:07:01;4.45;;;2.00;;
52031;SDS011;38044;45.148;39.604;2022-07-23T14:09:27;5.15;;;2.08;;
52031;SDS011;38044;45.148;39.604;2022-07-23T14:11:54;2.97;;;1.50;;
52031;SDS011;38044;45.148;39.604;2022-07-23T14:14:20;4.18;;;1.92;;
52031;SDS011;38044;45.148;39.604;2022-07-23T14:16:46;1.98;;;1.52;;
52031;SDS011;38044;45.148;39.604;2022-07-23T14:19:12;2.08;;;1.63;;
52031;SDS011;38044;45.148;39.604;2022-07-23T14:21:38;2.28;;;1.88;;
52031;SDS011;38044;45.148;39.604;2022-07-23T14:24:04;2.25;;;1.70;;
52031;SDS011;38044;45.148;39.604;2022-07-23T14:26:29;2.38;;;1.75;;
52031;SDS011;38044;45.148;39.604;2022-07-23T14:28:55;2.65;;;1.95;;
52031;SDS011;38044;45.148;39.604;2022-07-23T14:31:21;1.85;;;1.60;;
52031;SDS011;38044;45.148;39.604;2022-07-23T14:33:48;4.13;;;2.63;;
52031;SDS011;38044;45.148;39.604;2022-07-23T14:36:14;6.90;;;2.40;;
52031;SDS011;38044;45.148;39.604;2022-07-23T14:38:41;4.75;;;2.00;;
52031;SDS011;38044;45.148;39.604;2022-07-23T14:41:07;3.90;;;2.55;;
52031;SDS011;38044;45.148;39.604;2022-07-23T14:43:34;4.20;;;2.40;;
52031;SDS011;38044;45.148;39.604;2022-07-23T14:46:00;4.68;;;2.78;;
52031;SDS011;38044;45.148;39.604;2022-07-23T14:48:26;4.50;;;2.50;;
52031;SDS011;38044;45.148;39.604;2022-07-23T14:50:52;4.78;;;2.28;;
52031;SDS011;38044;45.148;39.604;2022-07-23T14:53:18;5.28;;;2.45;;
52031;SDS011;38044;45.148;39.604;2022-07-23T14:55:44;4.47;;;2.50;;
52031;SDS011;38044;45.148;39.604;2022-07-23T14:58:10;4.75;;;2.65;;
52031;SDS011;38044;45.148;39.604;2022-07-23T15:00:36;2.80;;;2.28;;
52031;SDS011;38044;45.148;39.604;2022-07-23T15:03:02;2.97;;;2.55;;
52031;SDS011;38044;45.148;39.604;2022-07-23T15:05:28;4.45;;;2.40;;
52031;SDS011;38044;45.148;39.604;2022-07-23T15:07:55;2.90;;;1.98;;
52031;SDS011;38044;45.148;39.604;2022-07-23T15:10:21;4.53;;;2.40;;
52031;SDS011;38044;45.148;39.604;2022-07-23T15:12:47;3.33;;;2.65;;
52031;SDS011;38044;45.148;39.604;2022-07-23T15:15:13;4.60;;;2.63;;
52031;SDS011;38044;45.148;39.604;2022-07-23T15:17:39;7.00;;;3.17;;